Time;durP1;ratioP1;P1;durP2;ratioP2;P2;SDS_P1;SDS_P2;PMS_P1;PMS_P2;Temp;Humidity;BMP_temperature;BMP_pressure;BME280_temperature;BME280_humidity;BME280_pressure;Samples;Min_cycle;Max_cycle;Signal;HPM_P1;HPM_P2
2021/09/05 00:00:13;;;;;;;3.67;1.83;;;14.60;98.00;;;;;;5091770;28;20495;-69
2021/09/05 00:02:40;;;;;;;2.50;2.00;;;14.50;98.00;;;;;;5091788;28;20491;-69
2021/09/05 00:05:08;;;;;;;1.67;1.40;;;14.60;98.00;;;;;;5091773;28;20861;-69
2021/09/05 00:07:35;;;;;;;4.70;1.90;;;14.70;98.00;;;;;;5091775;28;20477;-69
2021/09/05 00:10:03;;;;;;;1.23;1.10;;;14.80;98.00;;;;;;5091748;28;20918;-69
2021/09/05 00:12:31;;;;;;;2.43;1.40;;;14.60;98.00;;;;;;5091591;28;20455;-70
2021/09/05 00:14:58;;;;;;;1.93;1.50;;;14.50;98.00;;;;;;5091798;28;20467;-70
2021/09/05 00:17:28;;;;;;;1.40;1.20;;;14.50;98.00;;;;;;5091631;28;20460;-70
2021/09/05 00:19:55;;;;;;;1.47;1.30;;;14.50;98.00;;;;;;5090604;28;20463;-69
2021/09/05 00:22:22;;;;;;;1.97;1.50;;;14.50;98.00;;;;;;5091690;28;21139;-69
2021/09/05 00:24:49;;;;;;;1.63;1.53;;;14.80;98.00;;;;;;5090663;28;20552;-69
2021/09/05 00:27:16;;;;;;;2.90;1.60;;;14.60;98.00;;;;;;5091691;28;20524;-69
2021/09/05 00:29:43;;;;;;;5.00;1.93;;;14.50;98.00;;;;;;5091603;28;20934;-70
2021/09/05 00:32:10;;;;;;;2.27;1.83;;;14.60;98.00;;;;;;5091552;28;20487;-69
2021/09/05 00:34:39;;;;;;;2.70;1.80;;;14.50;98.00;;;;;;5091512;28;20491;-69
2021/09/05 00:37:06;;;;;;;1.40;1.30;;;14.30;98.00;;;;;;5091487;28;20882;-69
2021/09/05 00:39:33;;;;;;;2.63;1.50;;;14.10;98.00;;;;;;5091251;28;20521;-69
2021/09/05 00:42:00;;;;;;;2.00;1.67;;;14.20;98.00;;;;;;5091407;28;20455;-68
2021/09/05 00:44:28;;;;;;;5.87;1.77;;;14.20;98.00;;;;;;5090209;28;20491;-69
2021/09/05 00:46:54;;;;;;;3.80;1.57;;;14.20;98.00;;;;;;5089853;28;20935;-69
2021/09/05 00:49:21;;;;;;;1.57;1.50;;;14.20;98.00;;;;;;5091086;28;21095;-69
2021/09/05 00:51:50;;;;;;;2.00;1.87;;;14.20;98.00;;;;;;5091175;28;20870;-67
2021/09/05 00:54:17;;;;;;;1.40;1.33;;;14.20;98.00;;;;;;5089944;28;20962;-69
2021/09/05 00:56:45;;;;;;;2.80;1.77;;;14.00;98.00;;;;;;5090958;28;20490;-68
2021/09/05 00:59:16;;;;;;;2.07;1.93;;;13.90;98.00;;;;;;5090025;28;20458;-68
2021/09/05 01:01:44;;;;;;;1.20;1.10;;;14.00;98.00;;;;;;5091039;28;20452;-68
2021/09/05 01:04:11;;;;;;;3.17;1.70;;;14.10;98.00;;;;;;5091058;28;20971;-68
2021/09/05 01:06:44;;;;;;;1.53;1.53;;;14.10;98.00;;;;;;5093729;28;20487;-67
2021/09/05 01:09:13;;;;;;;2.43;1.67;;;14.30;98.00;;;;;;5094642;28;20522;-68
2021/09/05 01:11:40;;;;;;;2.17;1.60;;;14.30;98.00;;;;;;5094553;28;20515;-67
2021/09/05 01:14:09;;;;;;;1.27;1.27;;;14.10;98.00;;;;;;5094702;28;20907;-68
2021/09/05 01:16:40;;;;;;;1.20;1.17;;;14.00;98.00;;;;;;5094557;28;20985;-68
2021/09/05 01:19:10;;;;;;;1.70;1.47;;;14.00;98.00;;;;;;5094691;28;20481;-67
2021/09/05 01:21:38;;;;;;;2.03;1.50;;;14.10;98.00;;;;;;5094419;28;20776;-68
2021/09/05 01:24:07;;;;;;;2.57;1.63;;;14.00;98.00;;;;;;5094335;28;20516;-68
2021/09/05 01:26:37;;;;;;;3.33;2.10;;;13.80;98.00;;;;;;5094474;28;20823;-68
2021/09/05 01:29:07;;;;;;;1.43;1.40;;;13.80;98.00;;;;;;5094202;28;20483;-68
2021/09/05 01:31:39;;;;;;;1.50;1.20;;;13.90;98.00;;;;;;5094332;28;20495;-68
2021/09/05 01:34:08;;;;;;;2.77;1.37;;;14.00;98.00;;;;;;5094473;28;20834;-67
2021/09/05 01:36:36;;;;;;;1.57;1.40;;;13.90;98.00;;;;;;5093143;28;20488;-68
2021/09/05 01:39:04;;;;;;;1.70;1.47;;;13.90;98.00;;;;;;5094268;28;20540;-69
2021/09/05 01:41:31;;;;;;;2.27;1.30;;;14.00;98.00;;;;;;5094304;28;20528;-67
2021/09/05 01:43:59;;;;;;;1.30;1.30;;;13.80;98.00;;;;;;5094259;28;20494;-67
2021/09/05 01:46:27;;;;;;;4.43;1.30;;;13.80;98.00;;;;;;5093360;28;20483;-68
2021/09/05 01:48:55;;;;;;;2.83;1.50;;;13.90;98.00;;;;;;5093319;28;20925;-68
2021/09/05 01:51:22;;;;;;;2.57;1.70;;;13.80;98.00;;;;;;5091969;28;20860;-68
2021/09/05 01:53:49;;;;;;;2.73;1.47;;;13.60;98.00;;;;;;5093239;28;20467;-69
2021/09/05 01:56:16;;;;;;;1.80;1.50;;;13.60;98.00;;;;;;5094096;28;20513;-68
2021/09/05 01:58:43;;;;;;;2.63;1.70;;;13.70;98.00;;;;;;5091052;28;20498;-68
2021/09/05 02:01:11;;;;;;;1.97;1.40;;;13.80;98.00;;;;;;5093644;28;20463;-68
2021/09/05 02:03:39;;;;;;;1.93;1.67;;;13.70;98.00;;;;;;5093814;28;20952;-67
2021/09/05 02:06:07;;;;;;;2.37;1.60;;;13.60;98.00;;;;;;5093441;28;20453;-67
2021/09/05 02:08:34;;;;;;;1.60;1.30;;;13.60;98.00;;;;;;5093386;28;20526;-67
2021/09/05 02:11:00;;;;;;;3.20;1.93;;;13.70;98.00;;;;;;5093240;28;20509;-67
2021/09/05 02:13:28;;;;;;;2.57;1.40;;;13.70;98.00;;;;;;5093436;28;20497;-68
2021/09/05 02:15:54;;;;;;;1.30;1.30;;;13.70;98.00;;;;;;5091605;28;20452;-68
2021/09/05 02:18:22;;;;;;;1.87;1.60;;;13.60;98.00;;;;;;5093302;28;20506;-68
2021/09/05 02:20:51;;;;;;;2.07;1.53;;;13.50;98.00;;;;;;5093104;28;20463;-68
2021/09/05 02:23:20;;;;;;;2.33;1.50;;;13.40;98.00;;;;;;5093238;28;20491;-68
2021/09/05 02:25:47;;;;;;;2.10;1.97;;;13.60;98.00;;;;;;5092005;28;20459;-68
2021/09/05 02:28:15;;;;;;;2.47;1.23;;;13.70;98.00;;;;;;5091827;28;20510;-68
2021/09/05 02:30:42;;;;;;;1.47;1.40;;;13.60;98.00;;;;;;5092986;28;20450;-68
2021/09/05 02:33:09;;;;;;;2.57;1.20;;;13.60;98.00;;;;;;5093134;28;20544;-67
2021/09/05 02:35:36;;;;;;;1.47;1.40;;;13.60;98.00;;;;;;5093102;28;20852;-68
2021/09/05 02:38:04;;;;;;;4.00;1.97;;;13.40;98.00;;;;;;5093200;28;20487;-67
2021/09/05 02:40:32;;;;;;;1.77;1.33;;;13.20;98.00;;;;;;5092884;28;20527;-68
2021/09/05 02:42:59;;;;;;;1.97;1.43;;;13.10;98.00;;;;;;5091834;28;20450;-68
2021/09/05 02:45:26;;;;;;;1.87;1.50;;;13.20;98.00;;;;;;5093133;28;20449;-69
2021/09/05 02:47:53;;;;;;;2.90;1.60;;;13.40;98.00;;;;;;5092875;28;20939;-67
2021/09/05 02:50:20;;;;;;;1.50;1.47;;;13.40;98.00;;;;;;5091576;28;20486;-68
2021/09/05 02:52:47;;;;;;;1.57;1.20;;;13.30;98.00;;;;;;5091728;28;20454;-68
2021/09/05 02:55:19;;;;;;;2.07;1.40;;;13.30;98.00;;;;;;5092811;28;20494;-69
2021/09/05 02:57:45;;;;;;;1.60;1.50;;;13.30;98.00;;;;;;5092525;28;20459;-67
2021/09/05 03:00:13;;;;;;;1.60;1.30;;;13.20;98.00;;;;;;5092707;28;21030;-69
2021/09/05 03:02:40;;;;;;;1.77;1.57;;;13.10;98.00;;;;;;5092717;28;20488;-67
2021/09/05 03:05:07;;;;;;;1.97;1.40;;;13.10;98.00;;;;;;5092564;28;20485;-68
2021/09/05 03:07:34;;;;;;;1.40;1.30;;;13.10;98.00;;;;;;5092339;28;20452;-68
2021/09/05 03:10:01;;;;;;;1.73;1.47;;;13.10;98.00;;;;;;5090606;28;20567;-67
2021/09/05 03:12:30;;;;;;;1.57;1.27;;;13.10;98.00;;;;;;5092064;28;21120;-67
2021/09/05 03:14:57;;;;;;;2.70;1.33;;;13.00;98.00;;;;;;5092225;28;20557;-69
2021/09/05 03:17:24;;;;;;;1.97;1.40;;;13.10;98.00;;;;;;5092504;28;20926;-68
2021/09/05 03:19:51;;;;;;;2.10;1.20;;;13.10;98.00;;;;;;5092021;28;20495;-68
2021/09/05 03:22:27;;;;;;;1.40;1.30;;;13.10;98.00;;;;;;5092174;28;20458;-68
2021/09/05 03:24:54;;;;;;;1.57;1.30;;;13.00;98.00;;;;;;5092195;28;20466;-67
2021/09/05 03:27:21;;;;;;;2.37;1.60;;;13.10;98.00;;;;;;5091655;28;21845;-67
2021/09/05 03:29:49;;;;;;;1.20;1.20;;;13.10;98.00;;;;;;5091345;28;20476;-67
2021/09/05 03:32:16;;;;;;;2.17;1.93;;;13.20;98.00;;;;;;5092004;28;20534;-67
2021/09/05 03:34:43;;;;;;;1.70;1.70;;;13.00;98.00;;;;;;5091948;28;20454;-68
2021/09/05 03:37:10;;;;;;;1.30;1.20;;;12.90;98.00;;;;;;5091962;28;20614;-67
2021/09/05 03:39:37;;;;;;;1.70;1.40;;;13.00;98.00;;;;;;5092011;28;20503;-68
2021/09/05 03:42:05;;;;;;;1.50;1.30;;;13.00;98.00;;;;;;5091855;28;20894;-68
2021/09/05 03:44:33;;;;;;;2.20;1.33;;;13.10;98.00;;;;;;5091905;28;21018;-67
2021/09/05 03:47:01;;;;;;;1.33;1.13;;;13.00;98.00;;;;;;5091758;28;20520;-68
2021/09/05 03:49:30;;;;;;;1.60;1.40;;;12.90;98.00;;;;;;5091914;28;20518;-68
2021/09/05 03:51:58;;;;;;;2.20;1.30;;;12.90;98.00;;;;;;5091862;28;20861;-68
2021/09/05 03:54:25;;;;;;;1.30;1.13;;;12.70;98.00;;;;;;5091782;28;20480;-67
2021/09/05 03:56:52;;;;;;;1.30;1.30;;;12.60;98.00;;;;;;5091773;28;20872;-68
2021/09/05 03:59:19;;;;;;;2.33;1.80;;;12.60;98.00;;;;;;5091967;28;20452;-67
2021/09/05 04:01:47;;;;;;;4.13;1.83;;;12.60;98.00;;;;;;5091599;28;20491;-68
2021/09/05 04:04:15;;;;;;;1.53;1.33;;;12.60;98.00;;;;;;5091841;28;20931;-68
2021/09/05 04:06:48;;;;;;;2.07;1.97;;;12.60;98.00;;;;;;5091657;28;20982;-68
2021/09/05 04:10:08;;;;;;;3.20;1.70;;;12.60;98.00;;;;;;5091732;28;20536;-68
2021/09/05 04:12:05;;;;;;;1.50;1.47;;;12.40;98.00;;;;;;5091456;28;20458;-68
2021/09/05 04:14:33;;;;;;;1.77;1.50;;;12.50;98.00;;;;;;5091661;28;20464;-68
2021/09/05 04:17:00;;;;;;;1.50;1.17;;;12.50;98.00;;;;;;5090504;28;20471;-68
2021/09/05 04:19:28;;;;;;;2.07;1.50;;;12.50;98.00;;;;;;5091614;28;20491;-68
2021/09/05 04:21:56;;;;;;;1.97;1.17;;;12.50;98.00;;;;;;5091521;28;20534;-67
2021/09/05 04:24:23;;;;;;;1.30;1.30;;;12.60;98.00;;;;;;5091743;28;20509;-68
2021/09/05 04:26:50;;;;;;;2.00;1.40;;;12.70;98.00;;;;;;5090329;28;20507;-66
2021/09/05 04:29:18;;;;;;;2.77;1.70;;;12.60;98.00;;;;;;5091475;28;20577;-66
2021/09/05 04:31:45;;;;;;;2.03;1.60;;;12.70;98.00;;;;;;5091462;28;20484;-68
2021/09/05 04:34:11;;;;;;;3.00;1.60;;;12.80;98.00;;;;;;5090445;28;20933;-68
2021/09/05 04:36:40;;;;;;;1.50;1.30;;;12.70;98.00;;;;;;5091356;28;20491;-67
2021/09/05 04:39:07;;;;;;;1.60;1.40;;;12.60;98.00;;;;;;5092003;28;20458;-68
2021/09/05 04:41:34;;;;;;;1.77;1.53;;;12.50;98.00;;;;;;5093931;28;20485;-67
2021/09/05 04:44:02;;;;;;;2.03;1.30;;;12.50;98.00;;;;;;5095237;28;20458;-68
2021/09/05 04:46:29;;;;;;;1.40;1.23;;;12.50;98.00;;;;;;5095294;28;20941;-69
2021/09/05 04:48:58;;;;;;;1.20;1.00;;;12.50;98.00;;;;;;5094889;28;20489;-68
2021/09/05 04:51:25;;;;;;;1.20;1.20;;;12.60;98.00;;;;;;5094859;28;20978;-68
2021/09/05 04:53:55;;;;;;;1.70;1.17;;;12.50;98.00;;;;;;5095096;28;20496;-68
2021/09/05 04:56:22;;;;;;;1.40;1.10;;;12.40;98.00;;;;;;5094983;28;20883;-67
2021/09/05 04:58:49;;;;;;;1.20;1.10;;;12.30;98.00;;;;;;5094774;28;20874;-69
2021/09/05 05:01:16;;;;;;;1.70;1.50;;;12.30;98.00;;;;;;5094944;28;20454;-68
2021/09/05 05:03:42;;;;;;;1.30;1.20;;;12.40;98.00;;;;;;5094866;28;20454;-67
2021/09/05 05:06:10;;;;;;;2.80;1.40;;;12.40;98.00;;;;;;5094661;28;20478;-68
2021/09/05 05:08:37;;;;;;;1.80;1.30;;;12.50;98.00;;;;;;5094794;28;20516;-67
2021/09/05 05:11:06;;;;;;;1.40;1.20;;;12.50;98.00;;;;;;5094546;28;20520;-69
2021/09/05 05:13:33;;;;;;;2.17;1.20;;;12.40;98.00;;;;;;5093466;28;20488;-67
2021/09/05 05:16:00;;;;;;;2.13;1.70;;;12.60;98.00;;;;;;5094518;28;21068;-68
2021/09/05 05:18:27;;;;;;;1.60;1.17;;;12.70;98.00;;;;;;5094606;28;20459;-68
2021/09/05 05:20:55;;;;;;;2.00;1.63;;;12.80;98.00;;;;;;5094372;28;20865;-69
2021/09/05 05:23:22;;;;;;;1.80;1.40;;;12.70;98.00;;;;;;5094430;28;20458;-69
2021/09/05 05:25:49;;;;;;;1.50;1.30;;;12.60;98.00;;;;;;5094383;28;20522;-68
2021/09/05 05:28:18;;;;;;;4.20;1.30;;;12.60;98.00;;;;;;5094268;28;20504;-69
2021/09/05 05:30:45;;;;;;;1.40;1.20;;;12.80;98.00;;;;;;5094087;28;20478;-69
2021/09/05 05:33:11;;;;;;;3.67;1.67;;;12.60;98.00;;;;;;5094254;28;20541;-68
2021/09/05 05:35:38;;;;;;;2.00;1.37;;;12.50;98.00;;;;;;5094271;28;20489;-68
2021/09/05 05:38:07;;;;;;;1.47;1.47;;;12.60;98.00;;;;;;5094205;28;20874;-68
2021/09/05 05:40:35;;;;;;;1.40;1.10;;;12.70;98.00;;;;;;5094078;28;20950;-67
2021/09/05 05:43:03;;;;;;;1.40;1.30;;;12.80;98.00;;;;;;5094079;28;20816;-68
2021/09/05 05:45:31;;;;;;;1.83;1.47;;;12.90;98.00;;;;;;5094178;28;20496;-66
2021/09/05 05:47:59;;;;;;;1.97;1.60;;;13.00;98.00;;;;;;5094119;28;20481;-70
2021/09/05 05:50:27;;;;;;;1.77;1.33;;;13.10;98.00;;;;;;5093647;28;20469;-68
2021/09/05 05:52:54;;;;;;;1.57;1.40;;;13.10;98.00;;;;;;5093800;28;20483;-68
2021/09/05 05:55:21;;;;;;;2.57;1.37;;;13.20;98.00;;;;;;5094303;28;20488;-69
2021/09/05 05:57:48;;;;;;;1.93;1.40;;;13.20;98.00;;;;;;5093842;28;20451;-68
2021/09/05 06:00:16;;;;;;;1.20;1.10;;;13.20;98.00;;;;;;5093975;28;20494;-68
2021/09/05 06:02:44;;;;;;;1.50;1.30;;;13.30;98.00;;;;;;5093492;28;20490;-68
2021/09/05 06:05:13;;;;;;;1.60;1.20;;;13.40;98.00;;;;;;5093703;28;20528;-68
2021/09/05 06:07:40;;;;;;;1.77;1.50;;;13.50;98.00;;;;;;5093640;28;20970;-69
2021/09/05 06:10:08;;;;;;;1.30;1.30;;;13.30;98.00;;;;;;5093421;28;20480;-69
2021/09/05 06:12:35;;;;;;;2.30;1.70;;;13.40;98.00;;;;;;5093418;28;20512;-68
2021/09/05 06:15:02;;;;;;;1.80;1.60;;;13.40;98.00;;;;;;5093553;28;20819;-68
2021/09/05 06:17:29;;;;;;;1.50;1.30;;;13.40;98.00;;;;;;5093331;28;20458;-68
2021/09/05 06:19:57;;;;;;;1.40;1.20;;;13.40;98.00;;;;;;5093249;28;20929;-68
2021/09/05 06:22:24;;;;;;;4.60;1.33;;;13.50;98.00;;;;;;5093399;28;20483;-68
2021/09/05 06:24:51;;;;;;;1.20;1.20;;;13.40;98.00;;;;;;5093435;28;21029;-67
2021/09/05 06:27:18;;;;;;;2.27;1.50;;;13.40;98.00;;;;;;5093185;28;20477;-69
2021/09/05 06:29:45;;;;;;;1.40;1.10;;;13.60;98.00;;;;;;5091700;28;20493;-68
2021/09/05 06:32:22;;;;;;;1.97;1.43;;;13.60;98.00;;;;;;5093082;28;20460;-69
2021/09/05 06:34:49;;;;;;;1.60;1.30;;;13.70;98.00;;;;;;5093070;28;20458;-68
2021/09/05 06:37:18;;;;;;;1.50;1.40;;;13.70;98.00;;;;;;5093056;28;20464;-69
2021/09/05 06:39:45;;;;;;;2.03;1.40;;;13.80;98.00;;;;;;5092979;28;20458;-69
2021/09/05 06:42:12;;;;;;;1.70;1.60;;;14.00;98.00;;;;;;5092819;28;20466;-69
2021/09/05 06:44:39;;;;;;;1.67;1.37;;;14.10;98.00;;;;;;5092843;28;20498;-67
2021/09/05 06:47:06;;;;;;;1.30;1.20;;;14.20;98.00;;;;;;5092760;28;20890;-70
2021/09/05 06:49:33;;;;;;;1.80;1.53;;;14.30;98.00;;;;;;5092772;28;20490;-69
2021/09/05 06:52:01;;;;;;;1.70;1.43;;;14.30;98.00;;;;;;5092726;28;20547;-69
2021/09/05 06:54:29;;;;;;;1.73;1.57;;;14.50;98.00;;;;;;5092751;28;20505;-68
2021/09/05 06:56:56;;;;;;;2.50;1.80;;;14.60;98.00;;;;;;5092599;28;20509;-68
2021/09/05 06:59:27;;;;;;;2.73;2.00;;;14.80;98.00;;;;;;5092683;28;20979;-69
2021/09/05 07:01:53;;;;;;;1.90;1.37;;;14.80;98.00;;;;;;5091328;28;20451;-68
2021/09/05 07:04:20;;;;;;;2.00;1.47;;;14.70;98.00;;;;;;5092858;28;20998;-71
2021/09/05 07:06:47;;;;;;;2.73;1.50;;;14.80;98.00;;;;;;5092735;28;20493;-68
2021/09/05 07:09:14;;;;;;;1.30;1.30;;;14.90;98.00;;;;;;5092650;28;20494;-69
2021/09/05 07:11:43;;;;;;;1.30;1.30;;;15.00;98.00;;;;;;5091384;28;20569;-70
2021/09/05 07:14:10;;;;;;;2.10;1.40;;;15.00;98.00;;;;;;5092595;28;20479;-68
2021/09/05 07:16:36;;;;;;;1.97;1.70;;;15.10;98.00;;;;;;5092482;28;20483;-68
2021/09/05 07:19:03;;;;;;;2.50;2.03;;;15.10;98.00;;;;;;5092305;28;20965;-70
2021/09/05 07:21:30;;;;;;;4.90;1.73;;;15.20;98.00;;;;;;5092436;28;21040;-69
2021/09/05 07:23:57;;;;;;;1.97;1.67;;;15.30;98.00;;;;;;5092096;28;20549;-69
2021/09/05 07:26:28;;;;;;;2.50;1.80;;;15.40;98.00;;;;;;5092189;28;21014;-69
2021/09/05 07:28:56;;;;;;;2.17;1.53;;;15.60;98.00;;;;;;5092039;28;20528;-69
2021/09/05 07:31:24;;;;;;;2.83;1.90;;;15.80;98.00;;;;;;5091539;28;20825;-70
2021/09/05 07:33:51;;;;;;;2.60;1.77;;;16.00;98.00;;;;;;5092223;28;21014;-71
2021/09/05 07:36:18;;;;;;;4.97;2.13;;;16.10;98.00;;;;;;5092022;28;20499;-70
2021/09/05 07:38:46;;;;;;;1.73;1.47;;;16.20;98.00;;;;;;5091890;28;20519;-71
2021/09/05 07:41:13;;;;;;;2.50;1.83;;;16.30;98.00;;;;;;5091706;28;21019;-71
2021/09/05 07:43:41;;;;;;;3.07;2.07;;;16.50;98.00;;;;;;5091961;28;20462;-70
2021/09/05 07:46:09;;;;;;;1.87;1.53;;;16.60;98.00;;;;;;5091598;28;20482;-70
2021/09/05 07:48:37;;;;;;;2.07;1.63;;;16.70;98.00;;;;;;5091763;28;20535;-69
2021/09/05 07:51:06;;;;;;;1.63;1.50;;;16.80;98.00;;;;;;5091696;28;20541;-71
2021/09/05 07:53:33;;;;;;;1.63;1.57;;;16.90;98.00;;;;;;5091186;28;20542;-69
2021/09/05 07:56:00;;;;;;;1.50;1.30;;;17.10;98.00;;;;;;5090061;28;20514;-70
2021/09/05 07:58:28;;;;;;;1.50;1.37;;;17.10;98.00;;;;;;5091398;28;20872;-69
2021/09/05 08:00:55;;;;;;;1.67;1.60;;;17.20;98.00;;;;;;5091773;28;20460;-70
2021/09/05 08:03:23;;;;;;;1.60;1.37;;;17.30;98.00;;;;;;5091701;28;20528;-70
2021/09/05 08:06:01;;;;;;;1.70;1.70;;;17.50;98.00;;;;;;5088026;28;20488;-73
2021/09/05 08:08:28;;;;;;;2.17;1.50;;;17.70;98.00;;;;;;5098508;28;20452;-70
2021/09/05 08:10:55;;;;;;;3.20;1.90;;;17.80;98.00;;;;;;5098804;28;20510;-71
2021/09/05 08:13:21;;;;;;;2.67;1.90;;;18.00;98.00;;;;;;5109248;28;20972;-70
2021/09/05 08:15:50;;;;;;;2.37;1.87;;;18.20;98.00;;;;;;5115369;28;20493;-70
2021/09/05 08:18:17;;;;;;;1.40;1.30;;;18.40;98.00;;;;;;5116016;28;20857;-70
2021/09/05 08:20:45;;;;;;;3.67;2.03;;;18.50;98.00;;;;;;5116182;28;20944;-69
2021/09/05 08:23:12;;;;;;;2.40;1.90;;;18.60;98.00;;;;;;5116167;28;20447;-69
2021/09/05 08:25:39;;;;;;;2.13;1.80;;;18.80;98.00;;;;;;5116347;28;20447;-70
2021/09/05 08:28:10;;;;;;;1.87;1.50;;;18.90;98.00;;;;;;5116104;28;20482;-69
2021/09/05 08:30:37;;;;;;;2.40;1.77;;;19.10;98.00;;;;;;5116141;28;20482;-71
2021/09/05 08:33:04;;;;;;;2.07;1.80;;;19.20;98.00;;;;;;5116021;28;20455;-69
2021/09/05 08:35:31;;;;;;;2.47;1.70;;;19.20;98.00;;;;;;5116118;28;20482;-70
2021/09/05 08:38:00;;;;;;;3.90;2.00;;;19.30;98.00;;;;;;5115823;28;20539;-70
2021/09/05 08:40:28;;;;;;;1.90;1.83;;;19.40;98.00;;;;;;5115920;28;20486;-70
2021/09/05 08:42:56;;;;;;;2.03;1.63;;;19.50;98.00;;;;;;5115525;28;20490;-71
2021/09/05 08:45:23;;;;;;;1.97;1.70;;;19.60;98.00;;;;;;5115526;28;20490;-70
2021/09/05 08:47:50;;;;;;;3.50;2.20;;;19.70;98.00;;;;;;5115646;28;20463;-70
2021/09/05 08:50:17;;;;;;;1.50;1.20;;;19.90;98.00;;;;;;5115409;28;21201;-70
2021/09/05 08:52:44;;;;;;;3.43;1.80;;;20.00;98.00;;;;;;5115234;28;20875;-70
2021/09/05 08:55:13;;;;;;;2.93;2.23;;;20.20;98.00;;;;;;5115405;28;20451;-70
2021/09/05 08:57:40;;;;;;;2.57;1.77;;;20.40;98.00;;;;;;5113947;28;20864;-70
2021/09/05 09:00:08;;;;;;;2.40;1.80;;;20.50;98.00;;;;;;5114474;28;20540;-69
2021/09/05 09:02:54;;;;;;;3.20;1.90;;;20.70;98.00;;;;;;5114504;28;20477;-69
2021/09/05 09:05:31;;;;;;;1.80;1.70;;;20.90;98.00;;;;;;5114657;28;20556;-70
2021/09/05 09:08:00;;;;;;;2.03;1.90;;;21.00;98.00;;;;;;5114687;28;20450;-71
2021/09/05 09:10:29;;;;;;;2.23;1.83;;;21.10;98.00;;;;;;5115069;28;21149;-70
2021/09/05 09:12:56;;;;;;;3.03;1.97;;;21.20;98.00;;;;;;5115090;28;20447;-70
2021/09/05 09:15:25;;;;;;;1.97;1.70;;;21.40;98.00;;;;;;5115046;28;20487;-71
2021/09/05 09:17:55;;;;;;;2.17;1.87;;;21.60;98.00;;;;;;5114911;28;20454;-70
2021/09/05 09:20:38;;;;;;;3.00;2.00;;;21.80;98.00;;;;;;5115037;28;20491;-71
2021/09/05 09:23:10;;;;;;;2.57;2.10;;;22.00;98.00;;;;;;5114866;28;20461;-70
2021/09/05 09:25:50;;;;;;;5.57;2.10;;;22.10;98.00;;;;;;5112858;28;20539;-70
2021/09/05 09:28:25;;;;;;;2.83;1.80;;;22.30;98.00;;;;;;5113650;28;20951;-70
2021/09/05 09:30:58;;;;;;;2.10;1.70;;;22.50;98.00;;;;;;5114825;28;20506;-70
2021/09/05 09:33:27;;;;;;;3.00;2.00;;;22.60;98.00;;;;;;5114811;28;20451;-70
2021/09/05 09:35:56;;;;;;;3.30;1.87;;;22.90;98.00;;;;;;5114797;28;20455;-70
2021/09/05 09:38:24;;;;;;;2.93;2.00;;;23.10;98.00;;;;;;5114946;28;20455;-70
2021/09/05 09:41:14;;;;;;;2.60;2.03;;;23.30;98.00;;;;;;5114813;28;20451;-70
2021/09/05 09:43:56;;;;;;;3.53;2.30;;;23.40;98.00;;;;;;5114751;28;20583;-70
2021/09/05 09:46:24;;;;;;;2.47;2.10;;;23.70;98.00;;;;;;5114541;28;20558;-71
2021/09/05 09:48:54;;;;;;;4.60;1.70;;;24.00;98.00;;;;;;5114729;28;20452;-69
2021/09/05 09:51:22;;;;;;;1.53;1.47;;;24.20;96.30;;;;;;5114376;28;20510;-70
2021/09/05 09:53:50;;;;;;;1.93;1.60;;;24.40;98.00;;;;;;5114525;28;20454;-70
2021/09/05 09:56:20;;;;;;;2.80;2.00;;;24.60;95.40;;;;;;5114582;28;20785;-70
2021/09/05 09:58:50;;;;;;;3.90;1.70;;;24.80;95.60;;;;;;5114353;28;20819;-71
2021/09/05 10:01:18;;;;;;;3.03;2.20;;;24.90;91.20;;;;;;5114342;28;20983;-70
2021/09/05 10:03:48;;;;;;;2.97;2.13;;;25.00;90.10;;;;;;5113990;28;20452;-71
2021/09/05 10:06:16;;;;;;;1.87;1.80;;;25.20;89.40;;;;;;5113970;28;20458;-70
2021/09/05 10:08:47;;;;;;;1.87;1.57;;;25.40;90.90;;;;;;5113897;28;20494;-70
2021/09/05 10:11:20;;;;;;;2.00;1.80;;;25.60;89.10;;;;;;5113717;28;20519;-69
2021/09/05 10:13:49;;;;;;;2.00;1.90;;;25.80;87.90;;;;;;5113675;28;20509;-70
2021/09/05 10:16:16;;;;;;;2.23;1.80;;;25.90;88.70;;;;;;5113748;28;20511;-71
2021/09/05 10:18:46;;;;;;;3.40;2.00;;;26.00;84.00;;;;;;5113757;28;20825;-70
2021/09/05 10:21:15;;;;;;;3.03;2.10;;;26.10;82.30;;;;;;5113634;28;20451;-69
2021/09/05 10:23:48;;;;;;;2.17;2.03;;;26.20;84.60;;;;;;5113654;28;21209;-70
2021/09/05 10:26:15;;;;;;;2.77;1.87;;;26.40;84.50;;;;;;5113664;28;20454;-70
2021/09/05 10:28:45;;;;;;;3.53;2.17;;;26.50;80.20;;;;;;5113438;28;20543;-70
2021/09/05 10:31:13;;;;;;;3.17;2.03;;;26.60;82.30;;;;;;5113450;28;20550;-70
2021/09/05 10:33:43;;;;;;;2.57;1.87;;;26.80;82.70;;;;;;5113517;28;20452;-71
2021/09/05 10:36:12;;;;;;;2.53;1.90;;;26.80;82.10;;;;;;5113432;28;20473;-71
2021/09/05 10:38:41;;;;;;;3.47;2.27;;;26.90;79.50;;;;;;5112991;28;20491;-70
2021/09/05 10:41:13;;;;;;;2.37;1.97;;;27.10;79.40;;;;;;5113410;28;20443;-71
2021/09/05 10:44:05;;;;;;;2.43;1.73;;;27.20;79.00;;;;;;5113512;28;20459;-71
2021/09/05 10:46:40;;;;;;;2.93;1.87;;;27.20;78.70;;;;;;5113230;28;20544;-71
2021/09/05 10:49:07;;;;;;;2.80;2.03;;;27.30;78.00;;;;;;5113205;28;20986;-71
2021/09/05 10:51:40;;;;;;;3.00;1.90;;;27.50;78.80;;;;;;5113201;28;20483;-71
2021/09/05 10:54:09;;;;;;;3.33;2.03;;;27.70;79.80;;;;;;5113267;28;20461;-70
2021/09/05 10:56:37;;;;;;;3.63;2.10;;;27.90;76.30;;;;;;5113152;28;20515;-70
2021/09/05 10:59:08;;;;;;;2.57;1.93;;;27.90;76.20;;;;;;5111993;28;20538;-71
2021/09/05 11:01:36;;;;;;;2.00;1.60;;;28.10;76.70;;;;;;5113097;28;20575;-70
2021/09/05 11:04:29;;;;;;;5.03;1.97;;;28.20;74.70;;;;;;5113189;28;20455;-71
2021/09/05 11:07:00;;;;;;;2.10;1.90;;;28.30;74.50;;;;;;5112934;28;20455;-70
2021/09/05 11:09:50;;;;;;;2.63;1.70;;;28.50;74.30;;;;;;5113170;28;20462;-71
2021/09/05 11:12:36;;;;;;;2.40;2.10;;;28.60;74.80;;;;;;5112880;28;20487;-70
2021/09/05 11:15:13;;;;;;;3.27;2.20;;;28.60;73.40;;;;;;5113054;28;20482;-71
2021/09/05 11:17:41;;;;;;;2.80;1.90;;;28.80;73.60;;;;;;5113100;28;20914;-70
2021/09/05 11:20:10;;;;;;;2.70;2.00;;;29.00;72.60;;;;;;5112698;28;20464;-69
2021/09/05 11:22:40;;;;;;;2.37;1.57;;;29.20;68.50;;;;;;5112831;28;20447;-70
2021/09/05 11:25:16;;;;;;;1.80;1.67;;;29.30;69.60;;;;;;5112586;28;20512;-70
2021/09/05 11:28:05;;;;;;;2.03;1.80;;;29.50;65.60;;;;;;5112508;28;21021;-71
2021/09/05 11:30:35;;;;;;;3.97;2.10;;;29.50;67.10;;;;;;5112576;28;20483;-69
2021/09/05 11:33:05;;;;;;;2.47;1.80;;;29.80;65.90;;;;;;5112109;28;20478;-70
2021/09/05 11:35:44;;;;;;;2.63;1.57;;;29.70;65.40;;;;;;5112486;28;20498;-70
2021/09/05 11:38:12;;;;;;;2.37;1.77;;;29.90;65.30;;;;;;5112276;28;20477;-69
2021/09/05 11:40:47;;;;;;;2.10;2.00;;;30.10;66.80;;;;;;5112268;28;20454;-70
2021/09/05 11:43:15;;;;;;;1.83;1.63;;;30.10;65.40;;;;;;5094511;28;20494;-71
2021/09/05 11:45:44;;;;;;;1.90;1.70;;;30.10;64.10;;;;;;5111147;28;20463;-71
2021/09/05 11:48:11;;;;;;;2.30;1.57;;;30.30;64.50;;;;;;5112156;28;20455;-70
2021/09/05 11:50:40;;;;;;;3.43;2.47;;;30.30;63.90;;;;;;5111554;28;20863;-71
2021/09/05 11:53:08;;;;;;;2.97;2.20;;;30.30;64.70;;;;;;5111955;28;20577;-70
2021/09/05 11:55:35;;;;;;;3.00;1.80;;;30.30;65.80;;;;;;5111081;28;20516;-71
2021/09/05 11:58:05;;;;;;;2.40;1.73;;;30.20;67.80;;;;;;5112093;28;20451;-71
2021/09/05 12:00:33;;;;;;;2.93;2.10;;;30.20;65.70;;;;;;5112077;28;20450;-70
2021/09/05 12:03:04;;;;;;;2.57;1.80;;;30.30;64.80;;;;;;5112151;28;20447;-70
2021/09/05 12:05:31;;;;;;;2.47;1.90;;;30.10;64.70;;;;;;5112229;28;20455;-70
2021/09/05 12:07:59;;;;;;;1.93;1.80;;;29.90;63.50;;;;;;5112105;28;20484;-70
2021/09/05 12:10:28;;;;;;;3.93;2.10;;;29.90;68.40;;;;;;5112356;28;20455;-70
2021/09/05 12:13:00;;;;;;;3.30;2.10;;;29.70;67.50;;;;;;5112107;28;20514;-70
2021/09/05 12:15:32;;;;;;;2.07;1.90;;;29.60;66.90;;;;;;5112054;28;20516;-70
2021/09/05 12:18:00;;;;;;;3.40;2.30;;;29.50;65.90;;;;;;5112064;28;20536;-70
2021/09/05 12:20:40;;;;;;;2.50;1.90;;;29.30;68.00;;;;;;5112002;28;20490;-72
2021/09/05 12:23:22;;;;;;;3.30;2.30;;;29.20;68.00;;;;;;5111988;28;20461;-70
2021/09/05 12:25:50;;;;;;;2.33;2.00;;;29.20;66.50;;;;;;5112054;28;20462;-70
2021/09/05 12:28:23;;;;;;;3.43;2.30;;;29.30;66.30;;;;;;5111904;28;20925;-71
2021/09/05 12:30:52;;;;;;;2.33;1.87;;;29.50;68.20;;;;;;5111983;28;20466;-70
2021/09/05 12:33:20;;;;;;;4.43;2.20;;;29.50;67.40;;;;;;5111839;28;20514;-70
2021/09/05 12:35:50;;;;;;;1.87;1.67;;;29.50;65.90;;;;;;5111893;28;20925;-70
2021/09/05 12:38:25;;;;;;;2.00;1.70;;;29.60;66.00;;;;;;5110901;28;20473;-71
2021/09/05 12:40:54;;;;;;;2.80;2.00;;;29.70;66.80;;;;;;5111759;28;20458;-70
2021/09/05 12:43:42;;;;;;;3.50;2.20;;;29.70;68.10;;;;;;5111984;28;20481;-70
2021/09/05 12:46:09;;;;;;;3.13;2.03;;;29.80;66.20;;;;;;5111667;28;20483;-71
2021/09/05 12:48:38;;;;;;;2.20;1.70;;;29.80;65.60;;;;;;5111802;28;21030;-70
2021/09/05 12:51:08;;;;;;;3.50;2.00;;;29.80;65.20;;;;;;5111723;28;20498;-70
2021/09/05 12:53:36;;;;;;;6.60;2.20;;;29.90;66.70;;;;;;5111382;28;20514;-71
2021/09/05 12:56:03;;;;;;;2.77;2.10;;;30.10;64.80;;;;;;5111653;28;20996;-69